Fairbanks International, AK

2:29 PM AKST on March 01, 2015 (GMT -0900)
APRSWXNET College Observatory AK US | Change Station
CLOSE
Current Station
Personal Weather Station
Location: Fairbanks, AK
Elevation: 597 ft
Nearby Weather Stations

Elev 597 ft 64.86 °N, 147.85 °W | Updated 39 minutes ago

Partly Cloudy
Partly Cloudy
17 °F
Feels Like 17 °F
N
1
Wind Variable Wind from SSW
Gusts 0.0 mph

Today
High -- | Low -- °F
--% Chance of Precip.
Yesterday
High -- | Low -- °F
Precip. -- in
8:00 AM 6:08 PM
Waxing Gibbous, 88% visible
Pressure 30.69 in
Visibility 10.0 miles
Clouds Few 20000 ft
Windchill 17 °F
Dew Point 10 °F
Humidity 73%
Rainfall -999.00 in
Snow Depth Not available.
UV 1 out of 12
Pollen Not available.
Air Quality Not available.
Flu Activity Not available.
METAR PAFA 012253Z COR 00000KT 10SM FEW200 M03/M14 A3065 RMK AO2 SLP391 T10281144

More Conditions Fewer Conditions

Pressure 30.69 in
Visibility 10.0 miles
Clouds Few 20000 ft
Windchill 17 °F
Dew Point 10 °F
Humidity 73%
Rainfall -999.00 in
Snow Depth Not available.
UV 1 out of 12
Pollen Not available.
Air Quality Not available.
Flu Activity Not available.
METAR PAFA 012253Z COR 00000KT 10SM FEW200 M03/M14 A3065 RMK AO2 SLP391 T10281144

More Conditions Fewer Conditions

10-Day Weather Forecast

Almanac

Astronomy

Mar. 01, 2015 Rise Set
Actual Time
Civil Twilight
Nautical Twilight
Astronomical Twilight
Moon
Length of Visible Light
Length of Day
Tomorrow will be .
, % of the Moon is Illuminated

Today's Extremes

State Highs State Lows

Community

WunderPhotos

Upload Photos

1,801,605 photos uploaded!

WunderBlogs® & News

Nearby

Air Quality

  Air Quality AQ Index Pollutant
Not available.

Snow Depth

Station Depth Elevation

Earthquake Activity

City Distance Mag. Time & Date
Minimum magnitude displayed is 2.5.

Coastal Water Temperatures

Place Temperature

Nearby Weather Stations